createdAt,value
2019-03-31T00:00:26.056Z,41.60
2019-03-31T00:02:51.998Z,41.60
2019-03-31T00:05:17.958Z,41.60
2019-03-31T00:07:49.673Z,41.70
2019-03-31T00:10:21.680Z,41.50
2019-03-31T00:12:47.632Z,41.50
2019-03-31T00:15:13.576Z,41.50
2019-03-31T00:17:39.561Z,41.50
2019-03-31T00:20:05.624Z,41.50
2019-03-31T00:22:32.232Z,41.50
2019-03-31T00:24:58.192Z,41.40
2019-03-31T00:27:24.222Z,41.30
2019-03-31T00:29:50.198Z,41.30
2019-03-31T00:32:16.127Z,42.10
2019-03-31T00:34:42.080Z,41.50
2019-03-31T00:37:08.021Z,41.50
2019-03-31T00:39:34.064Z,41.50
2019-03-31T00:42:00.061Z,41.50
2019-03-31T00:44:26.025Z,41.10
2019-03-31T00:46:51.969Z,41.50
2019-03-31T00:49:17.905Z,41.50
2019-03-31T00:51:43.873Z,41.50
2019-03-31T00:54:09.801Z,41.50
2019-03-31T00:56:35.738Z,41.50
2019-03-31T00:59:01.701Z,41.50
2019-03-31T01:01:40.597Z,41.60
2019-03-31T01:04:06.936Z,41.60
2019-03-31T01:06:33.607Z,41.60
2019-03-31T01:09:00.269Z,41.70
2019-03-31T01:11:28.141Z,41.70
2019-03-31T01:13:54.086Z,41.70
2019-03-31T01:16:20.230Z,42.00
2019-03-31T01:18:46.181Z,41.60
2019-03-31T01:21:12.112Z,41.50
2019-03-31T01:23:38.085Z,41.50
2019-03-31T01:26:04.117Z,41.50
2019-03-31T01:28:30.082Z,41.50
2019-03-31T01:30:56.341Z,41.60
2019-03-31T01:33:22.885Z,41.50
2019-03-31T01:35:48.863Z,41.60
2019-03-31T01:38:15.041Z,41.50
2019-03-31T01:40:41.005Z,41.50
2019-03-31T01:43:06.971Z,41.50
2019-03-31T01:45:32.912Z,41.50
2019-03-31T01:47:58.846Z,41.40
2019-03-31T01:50:25.033Z,42.10
2019-03-31T01:52:51.085Z,41.40
2019-03-31T01:55:17.019Z,41.50
2019-03-31T01:57:42.953Z,41.40
2019-03-31T02:00:10.813Z,41.50
2019-03-31T02:02:36.764Z,41.40
2019-03-31T02:05:03.016Z,41.50
2019-03-31T02:07:28.941Z,41.40
2019-03-31T02:09:54.905Z,41.40
2019-03-31T02:12:20.841Z,41.40
2019-03-31T02:14:46.806Z,41.40
2019-03-31T02:17:12.849Z,41.40
2019-03-31T02:19:38.779Z,41.40
2019-03-31T02:22:04.744Z,41.40
2019-03-31T02:24:30.701Z,41.40
2019-03-31T02:26:56.645Z,41.40
2019-03-31T02:29:22.640Z,41.40
2019-03-31T02:31:48.602Z,41.40
2019-03-31T02:34:14.638Z,41.40
2019-03-31T02:36:40.711Z,41.40
2019-03-31T02:39:06.763Z,41.20
2019-03-31T02:41:32.809Z,41.20
2019-03-31T02:43:58.866Z,41.10
2019-03-31T02:46:24.829Z,41.20
2019-03-31T02:48:50.769Z,41.10
2019-03-31T02:51:16.710Z,41.10
2019-03-31T02:53:42.657Z,41.10
2019-03-31T02:56:08.676Z,41.10
2019-03-31T02:58:34.632Z,41.00
2019-03-31T03:01:00.598Z,41.00
2019-03-31T03:03:26.620Z,41.10
2019-03-31T03:05:52.575Z,41.10
2019-03-31T03:08:18.512Z,41.70
2019-03-31T03:10:44.541Z,41.10
2019-03-31T03:13:10.480Z,41.10
2019-03-31T03:15:36.409Z,41.70
2019-03-31T03:18:02.344Z,41.10
2019-03-31T03:20:28.292Z,41.10
2019-03-31T03:22:54.219Z,41.00
2019-03-31T03:25:20.171Z,41.00
2019-03-31T03:27:46.127Z,41.00
2019-03-31T03:30:12.190Z,41.00
2019-03-31T03:32:38.246Z,41.00
2019-03-31T03:35:04.210Z,41.00
2019-03-31T03:37:30.265Z,40.90
2019-03-31T03:39:56.228Z,41.00
2019-03-31T03:42:22.204Z,40.90
2019-03-31T03:44:48.168Z,40.90
2019-03-31T03:47:14.112Z,41.00
2019-03-31T03:49:40.062Z,40.90
2019-03-31T03:52:06.011Z,40.90
2019-03-31T03:54:31.935Z,40.90
2019-03-31T03:56:57.893Z,40.80
2019-03-31T03:59:23.832Z,40.80
2019-03-31T04:01:49.879Z,40.80
2019-03-31T04:04:15.840Z,40.80
2019-03-31T04:06:41.781Z,40.80
2019-03-31T04:09:07.785Z,40.80
2019-03-31T04:11:33.828Z,40.80
2019-03-31T04:13:59.767Z,40.80
2019-03-31T04:16:25.711Z,40.70
2019-03-31T04:18:51.662Z,40.70
2019-03-31T04:21:17.858Z,40.70
2019-03-31T04:23:44.010Z,40.70
2019-03-31T04:26:09.990Z,40.80
2019-03-31T04:28:36.029Z,40.80
2019-03-31T04:31:02.078Z,40.60
2019-03-31T04:33:28.112Z,41.10
2019-03-31T04:35:54.178Z,40.60
2019-03-31T04:38:20.139Z,40.60
2019-03-31T04:40:46.146Z,40.70
2019-03-31T04:43:12.178Z,40.70
2019-03-31T04:45:38.146Z,40.80
2019-03-31T04:48:04.123Z,40.60
2019-03-31T04:50:30.132Z,40.70
2019-03-31T04:52:56.095Z,40.70
2019-03-31T04:55:22.071Z,40.70
2019-03-31T04:57:48.037Z,40.60
2019-03-31T05:00:14.091Z,40.60
2019-03-31T05:02:40.028Z,40.60
2019-03-31T05:05:05.991Z,40.60
2019-03-31T05:07:31.923Z,40.60
2019-03-31T05:09:57.847Z,40.50
2019-03-31T05:12:23.820Z,40.60
2019-03-31T05:14:49.760Z,40.50
2019-03-31T05:17:15.751Z,40.60
2019-03-31T05:19:41.686Z,40.60
2019-03-31T05:22:07.637Z,40.50
2019-03-31T05:24:33.592Z,40.50
2019-03-31T05:26:59.631Z,40.40
2019-03-31T05:29:25.590Z,40.40
2019-03-31T05:31:51.527Z,40.50
2019-03-31T05:34:19.425Z,40.40
2019-03-31T05:36:45.305Z,40.40
2019-03-31T05:39:11.253Z,40.40
2019-03-31T05:41:37.223Z,40.40
2019-03-31T05:44:05.825Z,40.40
2019-03-31T05:46:31.057Z,40.40
2019-03-31T05:48:57.023Z,40.30
2019-03-31T05:51:23.025Z,40.30
2019-03-31T05:53:48.961Z,40.10
2019-03-31T05:56:14.903Z,40.10
2019-03-31T05:58:40.854Z,40.20
2019-03-31T06:01:07.023Z,40.10
2019-03-31T06:03:32.957Z,40.10
2019-03-31T06:05:58.894Z,40.10
2019-03-31T06:08:24.822Z,40.00
2019-03-31T06:10:50.815Z,40.10
2019-03-31T06:13:16.781Z,40.00
2019-03-31T06:15:42.813Z,40.00
2019-03-31T06:18:08.749Z,40.00
2019-03-31T06:20:34.699Z,40.00
2019-03-31T06:23:02.562Z,40.70
2019-03-31T06:25:28.506Z,39.90
2019-03-31T06:27:54.741Z,39.90
2019-03-31T06:30:20.685Z,39.90
2019-03-31T06:32:46.627Z,39.90
2019-03-31T06:35:12.568Z,40.20
2019-03-31T06:37:38.501Z,39.70
2019-03-31T06:40:04.469Z,39.70
2019-03-31T06:42:30.487Z,39.70
2019-03-31T06:44:56.456Z,39.60
2019-03-31T06:47:22.411Z,39.60
2019-03-31T06:49:48.375Z,39.40
2019-03-31T06:52:14.316Z,39.50
2019-03-31T06:54:40.279Z,39.60
2019-03-31T06:57:06.253Z,39.60
2019-03-31T06:59:32.479Z,39.70
2019-03-31T07:02:02.731Z,39.60
2019-03-31T07:04:28.538Z,38.70
2019-03-31T07:06:54.509Z,39.70
2019-03-31T07:09:20.454Z,39.80
2019-03-31T07:11:46.493Z,39.70
2019-03-31T07:14:12.433Z,39.90
2019-03-31T07:16:38.473Z,40.10
2019-03-31T07:19:04.448Z,40.30
2019-03-31T07:21:30.744Z,40.50
2019-03-31T07:23:56.713Z,41.00
2019-03-31T07:26:22.644Z,41.20
2019-03-31T07:28:48.595Z,41.00
2019-03-31T07:31:14.541Z,40.80
2019-03-31T07:33:40.488Z,40.80
2019-03-31T07:36:06.449Z,40.80
2019-03-31T07:38:38.811Z,40.80
2019-03-31T07:41:12.001Z,40.80
2019-03-31T07:43:28.103Z,40.80
2019-03-31T07:45:55.870Z,40.90
2019-03-31T07:48:21.940Z,40.90
2019-03-31T07:50:47.900Z,41.60
2019-03-31T07:53:13.883Z,41.00
2019-03-31T07:55:39.818Z,41.10
2019-03-31T07:58:05.750Z,41.00
2019-03-31T08:00:31.708Z,41.00
2019-03-31T08:03:00.350Z,41.10
2019-03-31T08:05:32.919Z,41.20
2019-03-31T08:07:53.340Z,41.30
2019-03-31T08:10:19.324Z,41.30
2019-03-31T08:12:45.255Z,41.40
2019-03-31T08:15:11.220Z,41.40
2019-03-31T08:17:37.188Z,41.40
2019-03-31T08:20:03.117Z,41.40
2019-03-31T08:22:29.086Z,42.10
2019-03-31T08:24:55.027Z,41.50
2019-03-31T08:27:20.996Z,41.40
2019-03-31T08:29:51.960Z,41.40
2019-03-31T08:32:14.800Z,41.30
2019-03-31T08:34:40.738Z,41.30
2019-03-31T08:37:06.706Z,41.20
2019-03-31T08:39:32.640Z,41.20
2019-03-31T08:41:58.618Z,41.30
2019-03-31T08:44:24.548Z,41.20
2019-03-31T08:46:50.491Z,41.10
2019-03-31T08:49:16.440Z,41.20
2019-03-31T08:51:42.402Z,41.20
2019-03-31T08:54:08.340Z,41.10
2019-03-31T08:56:34.306Z,41.30
2019-03-31T08:59:00.372Z,41.20
2019-03-31T09:01:26.296Z,41.10
2019-03-31T09:03:52.297Z,41.20
2019-03-31T09:06:18.335Z,41.20
2019-03-31T09:08:44.390Z,41.20
2019-03-31T09:11:10.348Z,41.30
2019-03-31T09:13:36.324Z,41.20
2019-03-31T09:16:02.282Z,41.20
2019-03-31T09:18:28.221Z,41.30
2019-03-31T09:20:54.159Z,41.20
2019-03-31T09:23:20.096Z,41.30
2019-03-31T09:25:47.691Z,41.20
2019-03-31T09:28:13.872Z,41.30
2019-03-31T09:30:39.830Z,41.30
2019-03-31T09:33:09.010Z,41.30
2019-03-31T09:35:34.967Z,41.30
2019-03-31T09:38:00.928Z,41.20
2019-03-31T09:40:26.896Z,41.20
2019-03-31T09:42:52.839Z,41.20
2019-03-31T09:45:18.790Z,41.10
2019-03-31T09:47:44.763Z,41.10
2019-03-31T09:50:10.722Z,41.20
2019-03-31T09:52:36.686Z,41.20
2019-03-31T09:55:02.624Z,41.20
2019-03-31T09:57:28.593Z,41.20
2019-03-31T09:59:54.551Z,41.10
2019-03-31T10:02:20.538Z,41.30
2019-03-31T10:04:46.485Z,41.50
2019-03-31T10:07:12.440Z,41.30
2019-03-31T10:09:38.383Z,41.30
2019-03-31T10:12:04.329Z,41.20
2019-03-31T10:14:30.313Z,41.10
2019-03-31T10:16:56.458Z,41.10
2019-03-31T10:19:22.501Z,41.40
2019-03-31T10:21:48.476Z,41.10
2019-03-31T10:24:14.530Z,41.30
2019-03-31T10:26:40.512Z,41.40
2019-03-31T10:29:06.452Z,41.50
2019-03-31T10:31:33.135Z,41.60
2019-03-31T10:33:59.097Z,41.60
2019-03-31T10:36:25.046Z,41.60
2019-03-31T10:38:50.976Z,41.70
2019-03-31T10:41:16.915Z,41.70
2019-03-31T10:43:42.842Z,41.70
2019-03-31T10:46:08.803Z,41.80
2019-03-31T10:48:34.748Z,42.20
2019-03-31T10:51:00.809Z,42.20
2019-03-31T10:53:26.868Z,42.30
2019-03-31T10:55:52.936Z,42.20
2019-03-31T10:58:18.883Z,41.70
2019-03-31T11:00:45.004Z,41.50
2019-03-31T11:03:11.073Z,41.90
2019-03-31T11:05:37.033Z,41.80
2019-03-31T11:08:02.965Z,41.80
2019-03-31T11:10:28.933Z,41.80
2019-03-31T11:12:54.878Z,41.90
2019-03-31T11:15:20.837Z,42.10
2019-03-31T11:17:46.797Z,42.30
2019-03-31T11:20:12.773Z,42.20
2019-03-31T11:22:40.627Z,42.30
2019-03-31T11:25:34.520Z,42.30
2019-03-31T11:28:00.588Z,41.60
2019-03-31T11:30:26.524Z,42.80
2019-03-31T11:32:52.476Z,43.00
2019-03-31T11:35:18.418Z,43.40
2019-03-31T11:37:44.472Z,43.70
2019-03-31T11:40:10.460Z,44.40
2019-03-31T11:42:37.328Z,44.20
2019-03-31T11:45:03.294Z,44.20
2019-03-31T11:47:29.244Z,44.60
2019-03-31T11:49:55.200Z,44.50
2019-03-31T11:52:21.136Z,44.70
2019-03-31T11:54:47.118Z,44.80
2019-03-31T11:57:13.054Z,44.90
2019-03-31T11:59:39.034Z,44.90
2019-03-31T12:02:04.986Z,44.90
2019-03-31T12:04:30.944Z,44.80
2019-03-31T12:06:56.906Z,44.80
2019-03-31T12:09:22.862Z,44.70
2019-03-31T12:11:49.246Z,44.80
2019-03-31T12:14:15.296Z,45.10
2019-03-31T12:16:41.229Z,45.20
2019-03-31T12:19:07.196Z,45.30
2019-03-31T12:21:33.137Z,45.20
2019-03-31T12:23:59.109Z,44.80
2019-03-31T12:26:25.088Z,45.10
2019-03-31T12:28:51.038Z,45.00
2019-03-31T12:31:16.998Z,44.90
2019-03-31T12:33:43.104Z,44.50
2019-03-31T12:36:09.202Z,44.30
2019-03-31T12:38:35.127Z,44.20
2019-03-31T12:41:01.086Z,44.00
2019-03-31T12:43:27.051Z,43.80
2019-03-31T12:45:53.014Z,43.60
2019-03-31T12:48:18.954Z,43.60
2019-03-31T12:50:45.064Z,43.70
2019-03-31T12:53:11.132Z,43.60
2019-03-31T12:55:37.149Z,43.50
2019-03-31T12:58:03.082Z,43.40
2019-03-31T13:00:29.056Z,43.30
2019-03-31T13:02:55.017Z,43.30
2019-03-31T13:05:21.035Z,43.20
2019-03-31T13:07:56.283Z,43.30
2019-03-31T13:10:14.959Z,43.20
2019-03-31T13:12:40.912Z,43.30
2019-03-31T13:15:06.861Z,43.30
2019-03-31T13:17:32.823Z,43.30
2019-03-31T13:19:58.785Z,43.10
2019-03-31T13:22:24.882Z,43.10
2019-03-31T13:24:50.850Z,43.10
2019-03-31T13:27:16.787Z,43.20
2019-03-31T13:29:42.725Z,43.00
2019-03-31T13:32:08.703Z,43.00
2019-03-31T13:34:34.725Z,42.80
2019-03-31T13:37:00.683Z,42.80
2019-03-31T13:39:26.650Z,42.70
2019-03-31T13:41:53.372Z,42.80
2019-03-31T13:44:19.421Z,42.90
2019-03-31T13:46:45.356Z,43.00
2019-03-31T13:49:11.353Z,42.90
2019-03-31T13:51:38.176Z,42.90
2019-03-31T13:54:04.143Z,42.90
2019-03-31T13:56:30.944Z,42.90
2019-03-31T13:58:57.353Z,42.90
2019-03-31T14:01:23.436Z,42.90
2019-03-31T14:03:49.484Z,42.90
2019-03-31T14:06:15.434Z,42.90
2019-03-31T14:08:41.357Z,42.80
2019-03-31T14:11:07.298Z,42.70
2019-03-31T14:13:33.245Z,42.60
2019-03-31T14:15:59.198Z,42.60
2019-03-31T14:18:25.152Z,42.50
2019-03-31T14:20:51.090Z,42.60
2019-03-31T14:23:17.063Z,42.40
2019-03-31T14:25:43.042Z,42.40
2019-03-31T14:28:08.973Z,42.40
2019-03-31T14:30:34.955Z,42.40
2019-03-31T14:33:00.891Z,42.40
2019-03-31T14:35:29.246Z,42.40
2019-03-31T14:37:55.291Z,42.30
2019-03-31T14:40:21.242Z,42.60
2019-03-31T14:42:47.171Z,42.30
2019-03-31T14:45:13.128Z,42.30
2019-03-31T14:47:39.122Z,42.30
2019-03-31T14:50:05.124Z,42.20
2019-03-31T14:52:31.078Z,42.20
2019-03-31T14:54:57.030Z,42.30
2019-03-31T14:57:22.991Z,42.20
2019-03-31T14:59:48.942Z,42.20
2019-03-31T15:02:14.908Z,42.20
2019-03-31T15:04:40.855Z,42.20
2019-03-31T15:07:06.807Z,42.10
2019-03-31T15:09:32.884Z,42.10
2019-03-31T15:11:58.845Z,42.10
2019-03-31T15:14:24.930Z,42.00
2019-03-31T15:16:50.869Z,42.00
2019-03-31T15:19:16.813Z,42.00
2019-03-31T15:21:44.436Z,42.00
2019-03-31T15:24:10.780Z,42.00
2019-03-31T15:26:36.759Z,41.90
2019-03-31T15:29:03.722Z,42.00
2019-03-31T15:31:29.797Z,42.00
2019-03-31T15:33:55.768Z,41.90
2019-03-31T15:36:21.741Z,42.00
2019-03-31T15:38:48.279Z,42.00
2019-03-31T15:41:21.152Z,42.00
2019-03-31T15:43:42.117Z,41.90
2019-03-31T15:46:08.185Z,41.90
2019-03-31T15:48:34.145Z,42.00
2019-03-31T15:51:00.181Z,41.90
2019-03-31T15:53:26.145Z,42.00
2019-03-31T15:55:52.126Z,42.60
2019-03-31T15:58:18.189Z,42.00
2019-03-31T16:00:44.122Z,42.00
2019-03-31T16:03:10.097Z,42.00
2019-03-31T16:05:36.045Z,41.90
2019-03-31T16:08:02.008Z,42.00
2019-03-31T16:10:27.962Z,41.90
2019-03-31T16:12:53.905Z,41.90
2019-03-31T16:15:19.858Z,41.90
2019-03-31T16:17:45.808Z,41.90
2019-03-31T16:20:11.850Z,42.00
2019-03-31T16:22:37.789Z,42.00
2019-03-31T16:25:05.682Z,42.40
2019-03-31T16:27:31.610Z,42.50
2019-03-31T16:29:57.558Z,42.60
2019-03-31T16:32:23.529Z,42.70
2019-03-31T16:34:49.485Z,42.70
2019-03-31T16:37:15.434Z,42.70
2019-03-31T16:39:41.402Z,42.80
2019-03-31T16:42:07.365Z,42.90
2019-03-31T16:44:33.317Z,42.90
2019-03-31T16:46:59.281Z,42.80
2019-03-31T16:49:25.224Z,42.70
2019-03-31T16:51:51.386Z,42.90
2019-03-31T16:54:17.401Z,42.70
2019-03-31T16:56:43.389Z,42.60
2019-03-31T16:59:09.558Z,42.70
2019-03-31T17:01:35.512Z,42.60
2019-03-31T17:04:01.462Z,42.70
2019-03-31T17:06:27.425Z,42.70
2019-03-31T17:08:53.586Z,42.70
2019-03-31T17:11:19.543Z,42.80
2019-03-31T17:13:45.734Z,42.90
2019-03-31T17:16:15.266Z,43.00
2019-03-31T17:18:39.622Z,43.00
2019-03-31T17:21:05.573Z,43.10
2019-03-31T17:23:31.536Z,43.20
2019-03-31T17:25:57.484Z,43.20
2019-03-31T17:28:23.438Z,43.10
2019-03-31T17:30:49.489Z,43.20
2019-03-31T17:33:15.435Z,43.20
2019-03-31T17:35:41.390Z,43.20
2019-03-31T17:38:07.318Z,43.30
2019-03-31T17:40:33.274Z,43.30
2019-03-31T17:42:59.200Z,43.40
2019-03-31T17:45:25.147Z,43.40
2019-03-31T17:47:51.131Z,43.30
2019-03-31T17:50:17.180Z,43.30
2019-03-31T17:52:43.128Z,43.40
2019-03-31T17:55:11.446Z,43.40
2019-03-31T17:57:42.994Z,45.20
2019-03-31T18:00:09.432Z,47.50
2019-03-31T18:02:35.882Z,48.00
2019-03-31T18:05:03.385Z,49.10
2019-03-31T18:07:30.696Z,48.40
2019-03-31T18:09:56.744Z,48.70
2019-03-31T18:12:22.709Z,47.30
2019-03-31T18:14:48.678Z,46.60
2019-03-31T18:17:17.450Z,46.20
2019-03-31T18:19:45.626Z,46.20
2019-03-31T18:22:16.707Z,46.00
2019-03-31T18:24:50.777Z,45.90
2019-03-31T18:27:18.373Z,45.80
2019-03-31T18:29:48.032Z,45.70
2019-03-31T18:32:16.398Z,45.60
2019-03-31T18:34:54.279Z,45.50
2019-03-31T18:37:24.707Z,45.40
2019-03-31T18:39:50.900Z,45.50
2019-03-31T18:42:16.848Z,45.30
2019-03-31T18:44:46.961Z,45.90
2019-03-31T18:50:02.726Z,45.00
2019-03-31T18:52:40.567Z,45.00
2019-03-31T18:55:19.994Z,45.00
2019-03-31T18:57:55.519Z,44.90
2019-03-31T19:00:29.544Z,44.90
2019-03-31T19:03:00.891Z,44.80
2019-03-31T19:05:33.931Z,45.30
2019-03-31T19:08:10.776Z,44.80
2019-03-31T19:10:55.386Z,44.80
2019-03-31T19:13:34.389Z,44.80
2019-03-31T19:16:10.765Z,44.80
2019-03-31T19:18:53.409Z,44.80
2019-03-31T19:21:40.005Z,44.80
2019-03-31T19:24:11.123Z,44.80
2019-03-31T19:26:48.654Z,44.80
2019-03-31T19:29:22.284Z,44.80
2019-03-31T19:32:08.167Z,44.70
2019-03-31T19:34:47.618Z,44.60
2019-03-31T19:37:32.559Z,44.70
2019-03-31T19:40:25.478Z,44.60
2019-03-31T19:42:57.816Z,44.60
2019-03-31T19:45:38.053Z,44.60
2019-03-31T19:48:22.359Z,44.60
2019-03-31T19:50:50.497Z,44.50
2019-03-31T19:53:27.783Z,44.50
2019-03-31T19:56:06.922Z,44.50
2019-03-31T19:58:42.239Z,44.60
2019-03-31T20:01:16.163Z,44.60
2019-03-31T20:03:44.036Z,44.50
2019-03-31T20:06:30.115Z,44.50
2019-03-31T20:09:14.583Z,44.50
2019-03-31T20:11:42.959Z,44.60
2019-03-31T20:14:10.890Z,44.60
2019-03-31T20:16:47.770Z,44.60
2019-03-31T20:19:34.189Z,45.00
2019-03-31T20:22:14.973Z,44.70
2019-03-31T20:24:45.720Z,44.70
2019-03-31T20:27:25.839Z,44.70
2019-03-31T20:29:53.721Z,44.80
2019-03-31T20:32:33.628Z,44.60
2019-03-31T20:35:01.585Z,44.70
2019-03-31T20:37:46.463Z,44.70
2019-03-31T20:40:14.324Z,44.70
2019-03-31T20:42:59.101Z,44.70
2019-03-31T20:45:25.162Z,44.80
2019-03-31T20:47:51.125Z,44.70
2019-03-31T20:50:17.090Z,44.60
2019-03-31T20:52:43.080Z,44.60
2019-03-31T20:55:16.202Z,44.60
2019-03-31T20:57:36.898Z,44.40
2019-03-31T21:00:02.842Z,44.50
2019-03-31T21:02:28.844Z,44.40
2019-03-31T21:04:54.898Z,44.40
2019-03-31T21:07:20.853Z,44.40
2019-03-31T21:09:46.793Z,44.40
2019-03-31T21:12:12.740Z,44.30
2019-03-31T21:14:38.714Z,44.30
2019-03-31T21:17:04.666Z,44.30
2019-03-31T21:19:30.618Z,44.20
2019-03-31T21:21:56.656Z,44.20
2019-03-31T21:24:22.610Z,44.20
2019-03-31T21:26:48.564Z,44.20
2019-03-31T21:29:14.540Z,44.10
2019-03-31T21:31:40.996Z,44.10
2019-03-31T21:34:06.949Z,44.00
2019-03-31T21:36:32.885Z,44.00
2019-03-31T21:38:58.863Z,44.10
2019-03-31T21:41:24.810Z,44.00
2019-03-31T21:43:50.771Z,44.00
2019-03-31T21:46:16.716Z,44.00
2019-03-31T21:48:42.664Z,44.00
2019-03-31T21:51:08.612Z,44.00
2019-03-31T21:53:34.568Z,43.90
2019-03-31T21:56:00.508Z,44.00
2019-03-31T21:58:26.454Z,44.00
2019-03-31T22:00:56.726Z,44.00
2019-03-31T22:03:22.664Z,44.70
2019-03-31T22:05:48.612Z,44.00
2019-03-31T22:08:14.580Z,44.00
2019-03-31T22:10:40.646Z,44.10
2019-03-31T22:13:06.596Z,44.00
2019-03-31T22:15:32.566Z,44.00
2019-03-31T22:17:58.519Z,43.90
2019-03-31T22:20:24.471Z,43.90
2019-03-31T22:22:50.443Z,43.90
2019-03-31T22:25:16.373Z,44.60
2019-03-31T22:27:42.331Z,43.90
2019-03-31T22:30:08.270Z,44.00
2019-03-31T22:32:34.350Z,43.90
2019-03-31T22:35:00.459Z,43.80
2019-03-31T22:37:26.565Z,43.80
2019-03-31T22:39:52.515Z,43.80
2019-03-31T22:42:18.470Z,43.80
2019-03-31T22:44:44.444Z,43.70
2019-03-31T22:47:10.411Z,43.70
2019-03-31T22:49:36.363Z,43.70
2019-03-31T22:52:02.313Z,43.70
2019-03-31T22:54:28.245Z,43.70
2019-03-31T22:56:54.220Z,43.60
2019-03-31T22:59:20.189Z,43.60
2019-03-31T23:01:46.409Z,43.60
2019-03-31T23:04:12.361Z,43.60
2019-03-31T23:06:38.303Z,44.20
2019-03-31T23:09:04.755Z,43.60
2019-03-31T23:11:30.681Z,43.50
2019-03-31T23:13:56.638Z,43.50
2019-03-31T23:16:22.692Z,43.50
2019-03-31T23:18:48.745Z,43.50
2019-03-31T23:21:14.699Z,43.60
2019-03-31T23:23:40.678Z,43.50
2019-03-31T23:26:06.769Z,43.40
2019-03-31T23:28:34.733Z,43.40
2019-03-31T23:31:03.499Z,43.40
2019-03-31T23:33:28.540Z,43.30
2019-03-31T23:35:54.501Z,43.40
2019-03-31T23:38:20.477Z,44.00
2019-03-31T23:40:46.428Z,43.40
2019-03-31T23:43:12.387Z,43.30
2019-03-31T23:45:38.309Z,43.30
2019-03-31T23:48:04.245Z,43.30
2019-03-31T23:50:30.185Z,43.30
2019-03-31T23:52:56.113Z,43.30
2019-03-31T23:55:22.053Z,43.20
2019-03-31T23:57:48.004Z,43.20
